createdAt,value
2022-09-01T00:00:11.461Z,100827.28
2022-09-01T00:02:39.224Z,100831.03
2022-09-01T00:05:07.675Z,100830.34
2022-09-01T00:07:35.873Z,100827.13
2022-09-01T00:10:07.741Z,100821.19
2022-09-01T00:12:35.673Z,100823.91
2022-09-01T00:15:04.982Z,100823.06
2022-09-01T00:17:32.742Z,100812.50
2022-09-01T00:19:59.957Z,100818.16
2022-09-01T00:22:27.116Z,100820.19
2022-09-01T00:24:54.183Z,100816.59
2022-09-01T00:27:22.827Z,100817.66
2022-09-01T00:29:58.935Z,100812.34
2022-09-01T00:32:27.104Z,100818.84
2022-09-01T00:34:54.348Z,100808.28
2022-09-01T00:37:21.510Z,100816.81
2022-09-01T00:39:48.766Z,100821.75
2022-09-01T00:42:16.212Z,100823.28
2022-09-01T00:44:43.832Z,100819.19
2022-09-01T00:47:13.722Z,100821.41
2022-09-01T00:49:47.700Z,100824.66
2022-09-01T00:52:34.482Z,100829.44
2022-09-01T00:55:29.267Z,100832.50
2022-09-01T00:57:59.276Z,100829.09
2022-09-01T01:00:32.283Z,100838.13
2022-09-01T01:02:59.802Z,100829.28
2022-09-01T01:05:40.690Z,100834.53
2022-09-01T01:08:11.995Z,100840.00
2022-09-01T01:10:42.213Z,100834.88
2022-09-01T01:13:15.497Z,100843.06
2022-09-01T01:15:44.453Z,100841.53
2022-09-01T01:18:14.639Z,100851.78
2022-09-01T01:21:03.040Z,100849.38
2022-09-01T01:24:14.662Z,100852.25
2022-09-01T01:26:42.537Z,100844.28
2022-09-01T01:29:10.236Z,100838.63
2022-09-01T01:31:37.993Z,100835.91
2022-09-01T01:34:08.915Z,100838.63
2022-09-01T01:36:39.631Z,100842.41
2022-09-01T01:39:17.395Z,100837.28
2022-09-01T01:41:49.007Z,100837.47
2022-09-01T01:44:22.737Z,100829.44
2022-09-01T01:46:54.721Z,100842.22
2022-09-01T01:49:27.647Z,100841.72
2022-09-01T01:51:56.936Z,100842.75
2022-09-01T01:54:34.210Z,100847.66
2022-09-01T01:57:04.573Z,100841.38
2022-09-01T01:59:33.966Z,100844.44
2022-09-01T02:02:04.026Z,100842.91
2022-09-01T02:04:34.232Z,100837.63
2022-09-01T02:07:13.708Z,100826.91
2022-09-01T02:09:46.208Z,100830.63
2022-09-01T02:12:19.625Z,100827.25
2022-09-01T02:14:46.882Z,100832.84
2022-09-01T02:17:14.052Z,100830.13
2022-09-01T02:19:43.320Z,100826.75
2022-09-01T02:22:11.507Z,100828.59
2022-09-01T02:24:45.046Z,100828.94
2022-09-01T02:27:12.232Z,100829.28
2022-09-01T02:29:43.740Z,100832.13
2022-09-01T02:32:11.884Z,100826.34
2022-09-01T02:34:40.054Z,100836.38
2022-09-01T02:37:07.539Z,100824.97
2022-09-01T02:39:34.617Z,100836.88
2022-09-01T02:42:01.978Z,100836.19
2022-09-01T02:44:31.294Z,100836.53
2022-09-01T02:47:01.912Z,100831.41
2022-09-01T02:49:30.021Z,100832.44
2022-09-01T02:52:01.991Z,100836.84
2022-09-01T02:54:33.015Z,100835.00
2022-09-01T02:57:01.275Z,100827.00
2022-09-01T02:59:30.762Z,100820.53
2022-09-01T03:02:01.081Z,100824.28
2022-09-01T03:04:34.965Z,100827.69
2022-09-01T03:07:07.167Z,100824.78
2022-09-01T03:09:35.562Z,100824.97
2022-09-01T03:12:04.078Z,100830.41
2022-09-01T03:14:32.030Z,100824.97
2022-09-01T03:17:00.689Z,100822.91
2022-09-01T03:19:41.951Z,100823.59
2022-09-01T03:22:10.055Z,100826.16
2022-09-01T03:24:39.114Z,100827.88
2022-09-01T03:27:06.351Z,100817.81
2022-09-01T03:29:33.807Z,100819.69
2022-09-01T03:32:02.900Z,100818.66
2022-09-01T03:34:34.393Z,100818.16
2022-09-01T03:37:03.657Z,100808.28
2022-09-01T03:39:31.360Z,100804.72
2022-09-01T03:41:58.985Z,100802.00
2022-09-01T03:44:27.750Z,100801.13
2022-09-01T03:46:55.538Z,100801.47
2022-09-01T03:49:27.898Z,100805.22
2022-09-01T03:51:57.526Z,100807.09
2022-09-01T03:54:30.562Z,100796.34
2022-09-01T03:57:00.081Z,100793.13
2022-09-01T03:59:30.292Z,100795.00
2022-09-01T04:02:00.317Z,100794.31
2022-09-01T04:04:32.847Z,100806.41
2022-09-01T04:07:00.354Z,100812.16
2022-09-01T04:09:29.230Z,100800.78
2022-09-01T04:11:56.569Z,100795.13
2022-09-01T04:14:25.592Z,100806.22
2022-09-01T04:17:13.403Z,100798.19
2022-09-01T04:19:42.305Z,100802.13
2022-09-01T04:22:14.435Z,100800.41
2022-09-01T04:24:46.780Z,100801.91
2022-09-01T04:27:18.438Z,100796.31
2022-09-01T04:29:47.101Z,100795.28
2022-09-01T04:32:15.961Z,100790.53
2022-09-01T04:34:49.819Z,100791.25
2022-09-01T04:37:22.143Z,100794.81
2022-09-01T04:40:01.513Z,100790.69
2022-09-01T04:42:32.720Z,100787.13
2022-09-01T04:45:10.756Z,100793.41
2022-09-01T04:47:42.814Z,100788.31
2022-09-01T04:50:17.358Z,100787.13
2022-09-01T04:53:06.227Z,100785.06
2022-09-01T04:55:44.350Z,100790.31
2022-09-01T04:58:17.952Z,100785.41
2022-09-01T05:00:52.245Z,100789.31
2022-09-01T05:03:26.778Z,100791.34
2022-09-01T05:06:18.602Z,100796.09
2022-09-01T05:08:56.511Z,100800.03
2022-09-01T05:11:46.144Z,100796.94
2022-09-01T05:14:49.018Z,100805.59
2022-09-01T05:17:22.333Z,100804.34
2022-09-01T05:20:00.890Z,100810.97
2022-09-01T05:22:30.813Z,100814.84
2022-09-01T05:25:12.014Z,100814.19
2022-09-01T05:27:50.005Z,100812.47
2022-09-01T05:30:24.120Z,100816.06
2022-09-01T05:32:53.784Z,100818.59
2022-09-01T05:35:24.755Z,100811.81
2022-09-01T05:37:59.834Z,100809.47
2022-09-01T05:40:28.618Z,100814.44
2022-09-01T05:42:56.272Z,100827.88
2022-09-01T05:45:24.525Z,100837.75
2022-09-01T05:47:55.112Z,100836.72
2022-09-01T05:50:22.875Z,100836.56
2022-09-01T05:52:51.209Z,100845.25
2022-09-01T05:55:18.582Z,100831.31
2022-09-01T05:57:50.853Z,100845.28
2022-09-01T06:00:18.789Z,100842.22
2022-09-01T06:02:49.673Z,100842.91
2022-09-01T06:05:21.446Z,100854.19
2022-09-01T06:07:52.103Z,100859.97
2022-09-01T06:10:20.490Z,100855.88
2022-09-01T06:12:48.658Z,100859.31
2022-09-01T06:15:18.694Z,100860.66
2022-09-01T06:17:50.282Z,100850.28
2022-09-01T06:20:19.676Z,100854.41
2022-09-01T06:22:48.213Z,100851.19
2022-09-01T06:25:18.658Z,100858.16
2022-09-01T06:27:48.439Z,100851.53
2022-09-01T06:30:24.113Z,100859.38
2022-09-01T06:33:11.499Z,100862.09
2022-09-01T06:35:46.040Z,100860.22
2022-09-01T06:38:17.845Z,100864.81
2022-09-01T06:40:51.195Z,100869.94
2022-09-01T06:43:23.334Z,100870.94
2022-09-01T06:45:55.081Z,100873.50
2022-09-01T06:48:24.992Z,100878.44
2022-09-01T06:51:17.263Z,100880.84
2022-09-01T06:53:56.649Z,100881.34
2022-09-01T06:56:32.395Z,100891.06
2022-09-01T06:59:06.314Z,100888.00
2022-09-01T07:01:39.515Z,100891.25
2022-09-01T07:04:12.735Z,100892.63
2022-09-01T07:10:06.117Z,100897.94
2022-09-01T07:18:39.512Z,100899.66
2022-09-01T07:21:38.742Z,100905.41
2022-09-01T07:24:10.688Z,100908.50
2022-09-01T07:26:46.836Z,100911.41
2022-09-01T07:29:15.649Z,100907.47
2022-09-01T07:31:52.082Z,100910.38
2022-09-01T07:42:30.689Z,100914.28
2022-09-01T07:43:42.858Z,100914.50
2022-09-01T07:47:19.484Z,100904.78
2022-09-01T07:50:11.426Z,100902.38
2022-09-01T07:52:29.232Z,100897.91
2022-09-01T07:54:58.790Z,100901.13
2022-09-01T07:57:26.652Z,100908.63
2022-09-01T07:59:56.124Z,100910.84
2022-09-01T08:02:47.225Z,100911.53
2022-09-01T08:05:22.524Z,100920.75
2022-09-01T08:07:52.812Z,100913.75
2022-09-01T08:10:25.402Z,100916.28
2022-09-01T08:12:59.987Z,100923.94
2022-09-01T08:16:06.797Z,100929.72
2022-09-01T08:18:16.829Z,100929.03
2022-09-01T08:20:45.855Z,100924.59
2022-09-01T08:23:37.975Z,100933.97
2022-09-01T08:26:13.900Z,100926.75
2022-09-01T08:28:46.425Z,100925.38
2022-09-01T08:31:18.996Z,100923.81
2022-09-01T08:33:49.779Z,100923.47
2022-09-01T08:36:23.058Z,100924.97
2022-09-01T08:38:52.877Z,100921.34
2022-09-01T08:41:36.487Z,100917.72
2022-09-01T08:44:26.289Z,100929.63
2022-09-01T08:47:43.612Z,100922.44
2022-09-01T08:50:13.363Z,100928.25
2022-09-01T08:53:35.387Z,100932.88
2022-09-01T08:56:03.175Z,100940.88
2022-09-01T08:58:32.598Z,100939.31
2022-09-01T09:01:08.107Z,100938.13
2022-09-01T09:04:22.497Z,100942.50
2022-09-01T09:07:22.179Z,100935.59
2022-09-01T09:10:05.911Z,100932.69
2022-09-01T09:13:08.569Z,100936.56
2022-09-01T09:15:50.521Z,100934.38
2022-09-01T09:18:39.745Z,100930.59
2022-09-01T09:21:22.665Z,100933.66
2022-09-01T09:24:00.931Z,100927.34
2022-09-01T09:26:42.304Z,100940.94
2022-09-01T09:29:10.287Z,100939.16
2022-09-01T09:31:46.018Z,100934.84
2022-09-01T09:34:41.874Z,100935.81
2022-09-01T09:37:31.209Z,100927.44
2022-09-01T09:40:08.555Z,100946.97
2022-09-01T09:43:04.220Z,100928.44
2022-09-01T09:45:42.021Z,100934.59
2022-09-01T09:48:29.258Z,100930.13
2022-09-01T09:50:56.629Z,100926.47
2022-09-01T09:53:34.358Z,100924.47
2022-09-01T09:56:27.866Z,100917.63
2022-09-01T09:59:02.024Z,100924.69
2022-09-01T10:01:31.924Z,100920.00
2022-09-01T10:04:03.830Z,100911.88
2022-09-01T10:06:48.253Z,100909.44
2022-09-01T10:09:23.344Z,100896.38
2022-09-01T10:11:58.769Z,100904.88
2022-09-01T10:14:52.225Z,100898.75
2022-09-01T10:17:36.178Z,100904.88
2022-09-01T10:20:26.716Z,100896.75
2022-09-01T10:22:54.721Z,100901.03
2022-09-01T10:25:32.420Z,100894.44
2022-09-01T10:28:20.905Z,100901.31
2022-09-01T10:30:53.206Z,100902.16
2022-09-01T10:33:22.836Z,100903.84
2022-09-01T10:35:54.063Z,100910.81
2022-09-01T10:38:26.237Z,100901.09
2022-09-01T10:41:10.073Z,100898.81
2022-09-01T10:43:49.545Z,100901.38
2022-09-01T10:46:25.928Z,100905.44
2022-09-01T10:49:03.422Z,100897.50
2022-09-01T10:51:39.143Z,100902.22
2022-09-01T10:54:55.782Z,100901.03
2022-09-01T10:57:47.356Z,100891.50
2022-09-01T11:00:35.111Z,100897.91
2022-09-01T11:06:13.257Z,100885.13
2022-09-01T11:08:50.763Z,100890.22
2022-09-01T11:11:38.231Z,100881.22
2022-09-01T11:14:20.179Z,100892.94
2022-09-01T11:17:23.383Z,100890.91
2022-09-01T11:20:15.799Z,100888.84
2022-09-01T11:23:03.813Z,100891.94
2022-09-01T11:25:43.959Z,100885.00
2022-09-01T11:28:18.169Z,100886.91
2022-09-01T11:31:08.661Z,100887.34
2022-09-01T11:34:04.679Z,100886.78
2022-09-01T11:36:48.291Z,100882.38
2022-09-01T11:39:20.879Z,100885.44
2022-09-01T11:41:57.486Z,100886.16
2022-09-01T11:44:36.922Z,100883.91
2022-09-01T11:47:17.474Z,100879.72
2022-09-01T11:49:57.510Z,100875.97
2022-09-01T11:52:31.726Z,100867.34
2022-09-01T11:55:00.298Z,100865.53
2022-09-01T11:57:37.811Z,100865.13
2022-09-01T12:00:13.862Z,100867.69
2022-09-01T12:02:51.650Z,100870.25
2022-09-01T12:05:33.574Z,100869.38
2022-09-01T12:08:14.031Z,100870.28
2022-09-01T12:10:44.454Z,100872.22
2022-09-01T12:13:18.769Z,100875.16
2022-09-01T12:16:16.559Z,100861.00
2022-09-01T12:18:52.434Z,100870.75
2022-09-01T12:21:29.436Z,100869.09
2022-09-01T12:24:23.239Z,100868.69
2022-09-01T12:26:59.175Z,100875.09
2022-09-01T12:29:32.033Z,100867.25
2022-09-01T12:32:00.656Z,100856.88
2022-09-01T12:34:40.992Z,100858.63
2022-09-01T12:37:13.473Z,100848.22
2022-09-01T12:40:01.999Z,100851.03
2022-09-01T12:42:41.628Z,100854.19
2022-09-01T12:45:13.377Z,100854.19
2022-09-01T12:47:48.035Z,100852.47
2022-09-01T12:50:16.420Z,100853.13
2022-09-01T12:52:55.653Z,100839.59
2022-09-01T12:58:27.189Z,100839.78
2022-09-01T13:01:08.478Z,100845.09
2022-09-01T13:04:14.692Z,100839.22
2022-09-01T13:06:42.274Z,100840.88
2022-09-01T13:09:10.294Z,100836.44
2022-09-01T13:14:25.756Z,100842.38
2022-09-01T13:16:55.039Z,100835.56
2022-09-01T13:19:28.851Z,100841.31
2022-09-01T13:21:58.698Z,100835.38
2022-09-01T13:24:30.206Z,100840.63
2022-09-01T13:29:48.574Z,100827.53
2022-09-01T13:32:22.665Z,100830.72
2022-09-01T13:34:52.463Z,100825.44
2022-09-01T13:37:21.672Z,100835.38
2022-09-01T13:39:49.065Z,100836.44
2022-09-01T13:42:17.710Z,100836.03
2022-09-01T13:44:48.566Z,100827.31
2022-09-01T13:47:32.464Z,100830.94
2022-09-01T13:50:10.421Z,100828.38
2022-09-01T13:52:55.159Z,100818.63
2022-09-01T13:55:29.887Z,100815.84
2022-09-01T13:57:58.981Z,100811.78
2022-09-01T14:00:35.295Z,100811.34
2022-09-01T14:03:13.060Z,100819.41
2022-09-01T14:05:44.516Z,100814.28
2022-09-01T14:08:14.847Z,100824.66
2022-09-01T14:10:49.110Z,100820.88
2022-09-01T14:13:17.288Z,100818.53
2022-09-01T14:15:47.309Z,100800.91
2022-09-01T14:18:16.370Z,100800.47
2022-09-01T14:20:47.518Z,100800.28
2022-09-01T14:23:16.044Z,100793.28
2022-09-01T14:25:49.773Z,100790.53
2022-09-01T14:28:20.668Z,100791.38
2022-09-01T14:33:18.887Z,100790.13
2022-09-01T14:35:48.460Z,100787.81
2022-09-01T14:38:17.175Z,100790.38
2022-09-01T14:40:48.857Z,100793.53
2022-09-01T14:43:16.333Z,100790.78
2022-09-01T14:45:47.196Z,100786.97
2022-09-01T14:48:20.970Z,100781.66
2022-09-01T14:50:51.108Z,100792.91
2022-09-01T14:53:24.219Z,100787.59
2022-09-01T14:55:55.533Z,100790.78
2022-09-01T14:58:26.505Z,100786.16
2022-09-01T15:01:03.594Z,100777.06
2022-09-01T15:03:34.971Z,100774.97
2022-09-01T15:06:02.738Z,100777.09
2022-09-01T15:08:31.462Z,100780.28
2022-09-01T15:11:01.458Z,100780.72
2022-09-01T15:13:30.932Z,100780.75
2022-09-01T15:15:59.070Z,100768.06
2022-09-01T15:18:26.454Z,100788.38
2022-09-01T15:20:55.817Z,100780.75
2022-09-01T15:23:26.205Z,100780.31
2022-09-01T15:25:57.906Z,100789.66
2022-09-01T15:28:26.217Z,100789.84
2022-09-01T15:30:57.151Z,100782.25
2022-09-01T15:33:24.609Z,100793.03
2022-09-01T15:35:51.968Z,100788.16
2022-09-01T15:38:21.289Z,100796.44
2022-09-01T15:40:57.978Z,100802.53
2022-09-01T15:43:28.194Z,100798.72
2022-09-01T15:45:58.690Z,100806.13
2022-09-01T15:48:28.225Z,100809.72
2022-09-01T15:51:23.983Z,100805.06
2022-09-01T15:53:58.455Z,100804.41
2022-09-01T15:56:26.688Z,100813.72
2022-09-01T15:59:02.406Z,100805.88
2022-09-01T16:01:36.347Z,100809.88
2022-09-01T16:04:14.637Z,100812.81
2022-09-01T16:06:45.596Z,100813.25
2022-09-01T16:09:13.554Z,100810.72
2022-09-01T16:11:41.772Z,100806.47
2022-09-01T16:14:09.598Z,100803.28
2022-09-01T16:16:49.390Z,100802.22
2022-09-01T16:19:54.619Z,100798.88
2022-09-01T16:22:58.588Z,100805.63
2022-09-01T16:25:32.530Z,100799.44
2022-09-01T16:28:20.814Z,100807.25
2022-09-01T16:30:53.002Z,100806.00
2022-09-01T16:33:20.234Z,100812.97
2022-09-01T16:36:11.102Z,100816.75
2022-09-01T16:38:51.652Z,100814.22
2022-09-01T16:41:28.328Z,100830.88
2022-09-01T16:44:05.499Z,100822.44
2022-09-01T16:46:55.369Z,100831.06
2022-09-01T16:49:38.374Z,100830.63
2022-09-01T16:52:17.805Z,100824.69
2022-09-01T16:55:18.528Z,100832.25
2022-09-01T16:58:21.589Z,100831.38
2022-09-01T17:01:20.038Z,100822.72
2022-09-01T17:03:54.264Z,100822.28
2022-09-01T17:06:55.127Z,100818.44
2022-09-01T17:09:41.836Z,100827.53
2022-09-01T17:12:27.760Z,100821.38
2022-09-01T17:15:11.631Z,100815.44
2022-09-01T17:17:51.547Z,100827.84
2022-09-01T17:20:26.660Z,100828.91
2022-09-01T17:23:00.659Z,100833.97
2022-09-01T17:25:41.541Z,100840.69
2022-09-01T17:28:18.795Z,100842.78
2022-09-01T17:31:01.174Z,100840.44
2022-09-01T17:33:51.665Z,100835.75
2022-09-01T17:36:47.020Z,100845.59
2022-09-01T17:39:41.032Z,100852.34
2022-09-01T17:42:45.677Z,100854.81
2022-09-01T17:45:45.777Z,100861.53
2022-09-01T17:48:21.306Z,100855.59
2022-09-01T17:51:13.670Z,100865.94
2022-09-01T17:54:04.683Z,100872.88
2022-09-01T17:57:10.943Z,100874.50
2022-09-01T18:00:23.388Z,100879.53
2022-09-01T18:03:03.162Z,100888.75
2022-09-01T18:05:44.182Z,100889.34
2022-09-01T18:08:32.457Z,100887.38
2022-09-01T18:11:12.575Z,100892.19
2022-09-01T18:14:06.442Z,100895.06
2022-09-01T18:17:02.919Z,100889.66
2022-09-01T18:19:38.747Z,100899.53
2022-09-01T18:22:15.369Z,100899.94
2022-09-01T18:25:14.450Z,100901.16
2022-09-01T18:27:47.959Z,100907.19
2022-09-01T18:30:36.309Z,100905.88
2022-09-01T18:33:33.883Z,100914.88
2022-09-01T18:36:26.007Z,100911.69
2022-09-01T18:39:03.783Z,100916.69
2022-09-01T18:42:14.735Z,100922.09
2022-09-01T18:45:10.387Z,100919.72
2022-09-01T18:47:57.239Z,100913.97
2022-09-01T18:50:52.209Z,100933.72
2022-09-01T18:53:46.052Z,100927.72
2022-09-01T18:56:57.414Z,100936.53
2022-09-01T19:00:18.133Z,100945.66
2022-09-01T19:03:27.678Z,100947.09
2022-09-01T19:06:21.222Z,100947.84
2022-09-01T19:09:19.328Z,100957.28
2022-09-01T19:12:14.358Z,100962.28
2022-09-01T19:14:53.874Z,100966.78
2022-09-01T19:17:58.440Z,100973.69
2022-09-01T19:20:56.458Z,100982.25
2022-09-01T19:23:52.290Z,100977.31
2022-09-01T19:26:24.082Z,100972.06
2022-09-01T19:29:16.861Z,100976.84
2022-09-01T19:31:49.300Z,100988.38
2022-09-01T19:34:26.016Z,100979.69
2022-09-01T19:37:02.849Z,100979.38
2022-09-01T19:39:38.197Z,100974.22
2022-09-01T19:42:36.322Z,100989.31
2022-09-01T19:45:18.763Z,100996.34
2022-09-01T19:48:04.610Z,101005.97
2022-09-01T19:50:55.919Z,101005.50
2022-09-01T19:53:44.886Z,101002.06
2022-09-01T19:56:35.603Z,101008.25
2022-09-01T19:59:41.023Z,101008.81
2022-09-01T20:02:42.154Z,101020.81
2022-09-01T20:05:40.189Z,101017.56
2022-09-01T20:08:16.818Z,101027.00
2022-09-01T20:11:42.841Z,101029.03
2022-09-01T20:14:41.747Z,101029.25
2022-09-01T20:17:21.493Z,101027.94
2022-09-01T20:20:05.645Z,101034.59
2022-09-01T20:22:57.834Z,101035.78
2022-09-01T20:25:40.032Z,101038.88
2022-09-01T20:28:25.768Z,101034.78
2022-09-01T20:31:03.832Z,101036.88
2022-09-01T20:33:55.494Z,101040.59
2022-09-01T20:36:37.076Z,101043.69
2022-09-01T20:39:33.649Z,101043.19
2022-09-01T20:42:31.492Z,101042.00
2022-09-01T20:45:22.358Z,101050.75
2022-09-01T20:47:58.051Z,101054.03
2022-09-01T20:50:54.412Z,101050.25
2022-09-01T20:53:35.150Z,101053.00
2022-09-01T20:56:10.087Z,101053.19
2022-09-01T20:58:45.103Z,101057.81
2022-09-01T21:01:46.791Z,101056.97
2022-09-01T21:04:35.984Z,101062.94
2022-09-01T21:07:19.915Z,101066.84
2022-09-01T21:09:59.019Z,101075.94
2022-09-01T21:12:36.813Z,101083.44
2022-09-01T21:15:15.903Z,101086.16
2022-09-01T21:18:23.496Z,101078.16
2022-09-01T21:20:53.248Z,101079.53
2022-09-01T21:23:21.153Z,101082.44
2022-09-01T21:25:49.671Z,101085.34
2022-09-01T21:28:20.384Z,101084.00
2022-09-01T21:30:55.110Z,101087.19
2022-09-01T21:33:24.833Z,101084.66
2022-09-01T21:35:52.830Z,101095.72
2022-09-01T21:38:20.221Z,101089.41
2022-09-01T21:40:49.461Z,101090.78
2022-09-01T21:43:32.212Z,101090.94
2022-09-01T21:46:00.897Z,101091.28
2022-09-01T21:48:29.080Z,101086.66
2022-09-01T21:50:56.443Z,101088.22
2022-09-01T21:53:23.837Z,101095.06
2022-09-01T21:55:51.136Z,101097.25
2022-09-01T21:58:21.025Z,101099.31
2022-09-01T22:00:49.111Z,101089.59
2022-09-01T22:03:16.462Z,101098.97
2022-09-01T22:05:44.926Z,101099.81
2022-09-01T22:08:17.222Z,101102.22
2022-09-01T22:10:49.597Z,101104.75
2022-09-01T22:13:19.014Z,101105.09
2022-09-01T22:15:51.063Z,101107.31
2022-09-01T22:18:21.378Z,101105.94
2022-09-01T22:20:49.132Z,101112.09
2022-09-01T22:23:16.970Z,101109.19
2022-09-01T22:25:47.837Z,101109.34
2022-09-01T22:28:15.217Z,101113.09
2022-09-01T22:30:48.355Z,101116.69
2022-09-01T22:33:16.041Z,101118.56
2022-09-01T22:35:46.573Z,101126.91
2022-09-01T22:38:14.281Z,101123.31
2022-09-01T22:40:47.479Z,101117.88
2022-09-01T22:43:18.160Z,101124.50
2022-09-01T22:45:48.482Z,101125.72
2022-09-01T22:48:18.992Z,101129.63
2022-09-01T22:50:50.251Z,101122.63
2022-09-01T22:53:21.689Z,101131.84
2022-09-01T22:55:51.458Z,101119.19
2022-09-01T22:58:20.197Z,101126.16
2022-09-01T23:00:54.460Z,101117.28
2022-09-01T23:03:23.236Z,101135.19
2022-09-01T23:05:51.166Z,101125.47
2022-09-01T23:08:19.207Z,101124.44
2022-09-01T23:10:46.371Z,101124.94
2022-09-01T23:13:13.503Z,101128.84
2022-09-01T23:15:41.622Z,101129.69
2022-09-01T23:18:08.699Z,101133.97
2022-09-01T23:20:36.368Z,101134.97
2022-09-01T23:23:04.128Z,101128.84
2022-09-01T23:25:31.700Z,101131.72
2022-09-01T23:27:58.824Z,101134.78
2022-09-01T23:30:25.999Z,101134.63
2022-09-01T23:32:53.375Z,101139.38
2022-09-01T23:35:20.582Z,101141.56
2022-09-01T23:37:47.693Z,101146.31
2022-09-01T23:40:14.913Z,101153.50
2022-09-01T23:42:42.452Z,101153.66
2022-09-01T23:45:10.355Z,101141.19
2022-09-01T23:47:37.529Z,101138.66
2022-09-01T23:50:06.069Z,101137.47
2022-09-01T23:52:33.195Z,101128.78
2022-09-01T23:55:01.544Z,101128.94
2022-09-01T23:57:28.723Z,101129.94
2022-09-01T23:59:57.422Z,101125.69
